createdAt,value
2023-01-29T00:01:54.349Z,99378.81
2023-01-29T00:04:22.319Z,99380.97
2023-01-29T00:06:48.739Z,99379.28
2023-01-29T00:09:15.475Z,99373.34
2023-01-29T00:11:42.172Z,99363.59
2023-01-29T00:14:08.676Z,99354.78
2023-01-29T00:16:35.233Z,99377.28
2023-01-29T00:19:02.597Z,99373.13
2023-01-29T00:21:31.004Z,99372.91
2023-01-29T00:23:58.587Z,99366.59
2023-01-29T00:26:26.171Z,99358.59
2023-01-29T00:28:52.808Z,99359.06
2023-01-29T00:31:24.599Z,99356.44
2023-01-29T00:33:51.732Z,99356.47
2023-01-29T00:36:21.096Z,99347.31
2023-01-29T00:38:54.714Z,99301.00
2023-01-29T00:41:41.619Z,99356.94
2023-01-29T00:44:26.930Z,99367.28
2023-01-29T00:46:53.538Z,99365.38
2023-01-29T00:49:20.295Z,99359.31
2023-01-29T00:52:09.562Z,99385.25
2023-01-29T00:54:36.736Z,99374.31
2023-01-29T00:57:04.193Z,99374.31
2023-01-29T00:59:31.649Z,99249.78
2023-01-29T01:02:17.019Z,99381.91
2023-01-29T01:04:43.604Z,99385.56
2023-01-29T01:10:05.836Z,99386.16
2023-01-29T01:12:32.678Z,99390.91
2023-01-29T01:14:59.458Z,99379.50
2023-01-29T01:17:26.177Z,99386.41
2023-01-29T01:19:52.658Z,99392.34
2023-01-29T01:22:19.335Z,99388.09
2023-01-29T01:24:46.398Z,99392.47
2023-01-29T01:27:13.640Z,99371.31
2023-01-29T01:29:40.717Z,99387.03
2023-01-29T01:32:07.577Z,99379.91
2023-01-29T01:34:34.281Z,99384.75
2023-01-29T01:37:00.907Z,99391.75
2023-01-29T01:39:27.348Z,99387.59
2023-01-29T01:41:54.714Z,99383.06
2023-01-29T01:44:58.591Z,99386.88
2023-01-29T01:47:30.812Z,99345.50
2023-01-29T01:50:02.683Z,99373.09
2023-01-29T01:52:32.015Z,99367.53
2023-01-29T01:55:00.410Z,99376.53
2023-01-29T01:57:31.127Z,99372.28
2023-01-29T02:00:10.195Z,99349.81
2023-01-29T02:03:01.204Z,99353.63
2023-01-29T02:05:49.895Z,99370.63
2023-01-29T02:08:44.565Z,99371.09
2023-01-29T02:11:11.367Z,99366.09
2023-01-29T02:13:38.344Z,99357.56
2023-01-29T02:16:05.019Z,99350.03
2023-01-29T02:18:38.008Z,99354.81
2023-01-29T02:21:56.681Z,99357.44
2023-01-29T02:24:53.978Z,99349.59
2023-01-29T02:27:31.351Z,99301.94
2023-01-29T02:30:22.862Z,99347.34
2023-01-29T02:33:07.548Z,99335.28
2023-01-29T02:35:42.531Z,99336.97
2023-01-29T02:38:38.447Z,99338.88
2023-01-29T02:41:20.438Z,99327.94
2023-01-29T02:43:55.559Z,99321.16
2023-01-29T02:46:41.203Z,99318.16
2023-01-29T02:49:16.489Z,99315.31
2023-01-29T02:51:51.372Z,99320.53
2023-01-29T02:54:27.665Z,99322.91
2023-01-29T02:57:08.508Z,99303.56
2023-01-29T02:59:40.731Z,99313.53
2023-01-29T03:02:13.640Z,99308.53
2023-01-29T03:04:46.483Z,99274.94
2023-01-29T03:07:41.288Z,99311.75
2023-01-29T03:10:17.852Z,99308.44
2023-01-29T03:12:47.790Z,99324.25
2023-01-29T03:15:27.243Z,99330.09
2023-01-29T03:18:15.436Z,99332.59
2023-01-29T03:20:48.035Z,99335.69
2023-01-29T03:23:53.798Z,99338.28
2023-01-29T03:26:41.715Z,99343.63
2023-01-29T03:29:28.599Z,99350.78
2023-01-29T03:32:09.399Z,99344.69
2023-01-29T03:34:48.087Z,99353.63
2023-01-29T03:37:33.003Z,99360.25
2023-01-29T03:39:59.593Z,99353.47
2023-01-29T03:42:40.940Z,99352.28
2023-01-29T03:45:19.625Z,99357.13
2023-01-29T03:47:54.525Z,99352.16
2023-01-29T03:50:36.640Z,99359.53
2023-01-29T03:53:28.283Z,99345.19
2023-01-29T03:56:19.505Z,99347.22
2023-01-29T03:59:02.559Z,99357.88
2023-01-29T04:01:56.046Z,99367.50
2023-01-29T04:04:38.168Z,99387.56
2023-01-29T04:07:24.613Z,99380.91
2023-01-29T04:10:04.815Z,99378.84
2023-01-29T04:12:47.534Z,99377.78
2023-01-29T04:15:16.971Z,99366.28
2023-01-29T04:17:51.660Z,99361.34
2023-01-29T04:20:25.654Z,99343.28
2023-01-29T04:22:52.711Z,99359.34
2023-01-29T04:25:28.859Z,99320.94
2023-01-29T04:28:07.997Z,99349.59
2023-01-29T04:30:56.649Z,99348.25
2023-01-29T04:33:33.731Z,99348.88
2023-01-29T04:36:38.113Z,99336.03
2023-01-29T04:39:31.818Z,99280.44
2023-01-29T04:42:36.969Z,99347.19
2023-01-29T04:45:25.585Z,99325.19
2023-01-29T04:48:00.711Z,99314.63
2023-01-29T04:50:36.608Z,99300.38
2023-01-29T04:53:23.756Z,99270.34
2023-01-29T04:55:57.487Z,99311.91
2023-01-29T04:58:35.867Z,99320.84
2023-01-29T05:01:06.129Z,99313.47
2023-01-29T05:03:34.264Z,99317.97
2023-01-29T05:06:02.493Z,99321.66
2023-01-29T05:08:31.905Z,99329.84
2023-01-29T05:10:59.763Z,99326.28
2023-01-29T05:13:29.865Z,99329.84
2023-01-29T05:16:22.187Z,99337.00
2023-01-29T05:18:48.795Z,99340.56
2023-01-29T05:21:15.429Z,99340.19
2023-01-29T05:23:53.054Z,99343.28
2023-01-29T05:26:40.050Z,99352.09
2023-01-29T05:29:06.499Z,99346.25
2023-01-29T05:31:32.966Z,99350.31
2023-01-29T05:33:59.455Z,99345.31
2023-01-29T05:36:26.789Z,99343.41
2023-01-29T05:38:53.335Z,99348.63
2023-01-29T05:41:20.991Z,99355.16
2023-01-29T05:43:47.623Z,99361.00
2023-01-29T05:46:14.079Z,99354.34
2023-01-29T05:48:40.512Z,99350.06
2023-01-29T05:51:06.964Z,99337.53
2023-01-29T05:53:33.579Z,99348.13
2023-01-29T05:56:04.554Z,99335.88
2023-01-29T05:58:32.598Z,99335.03
2023-01-29T06:01:08.459Z,99331.97
2023-01-29T06:03:34.923Z,99334.56
2023-01-29T06:06:02.092Z,99334.56
2023-01-29T06:08:28.548Z,99299.66
2023-01-29T06:10:55.062Z,99335.53
2023-01-29T06:13:23.581Z,99342.94
2023-01-29T06:15:50.207Z,99344.69
2023-01-29T06:18:16.662Z,99348.25
2023-01-29T06:20:43.120Z,99358.09
2023-01-29T06:23:09.539Z,99346.97
2023-01-29T06:25:36.014Z,99349.00
2023-01-29T06:28:02.485Z,99350.13
2023-01-29T06:30:28.930Z,99342.19
2023-01-29T06:32:58.651Z,99309.88
2023-01-29T06:35:25.643Z,99330.78
2023-01-29T06:37:52.064Z,99332.91
2023-01-29T06:40:19.070Z,99327.69
2023-01-29T06:42:46.228Z,99329.72
2023-01-29T06:45:12.807Z,99335.69
2023-01-29T06:47:39.259Z,99334.72
2023-01-29T06:50:06.133Z,99330.69
2023-01-29T06:52:32.672Z,99332.25
2023-01-29T06:54:59.099Z,99337.94
2023-01-29T06:57:28.441Z,99342.69
2023-01-29T06:59:54.916Z,99332.25
2023-01-29T07:02:21.404Z,99330.81
2023-01-29T07:04:47.999Z,99344.84
2023-01-29T07:07:14.511Z,99332.00
2023-01-29T07:09:42.242Z,99340.81
2023-01-29T07:12:10.648Z,99336.88
2023-01-29T07:14:37.125Z,99342.91
2023-01-29T07:17:03.840Z,99350.19
2023-01-29T07:19:30.264Z,99346.25
2023-01-29T07:21:56.879Z,99341.03
2023-01-29T07:24:23.340Z,99357.06
2023-01-29T07:26:49.816Z,99348.50
2023-01-29T07:29:16.193Z,99319.75
2023-01-29T07:31:42.767Z,99348.50
2023-01-29T07:34:09.200Z,99350.66
2023-01-29T07:36:37.180Z,99342.69
2023-01-29T07:39:05.331Z,99340.69
2023-01-29T07:41:31.742Z,99350.31
2023-01-29T07:43:59.559Z,99361.13
2023-01-29T07:46:26.060Z,99362.31
2023-01-29T07:48:52.505Z,99355.03
2023-01-29T07:51:19.230Z,99354.47
2023-01-29T07:53:45.829Z,99365.28
2023-01-29T07:56:12.386Z,99369.19
2023-01-29T07:58:38.856Z,99358.84
2023-01-29T08:01:07.598Z,99369.91
2023-01-29T08:03:34.138Z,99356.94
2023-01-29T08:06:00.641Z,99377.66
2023-01-29T08:08:27.115Z,99378.13
2023-01-29T08:10:53.526Z,99359.69
2023-01-29T08:13:19.992Z,99370.16
2023-01-29T08:15:46.449Z,99370.84
2023-01-29T08:18:14.133Z,99382.84
2023-01-29T08:20:40.587Z,99388.69
2023-01-29T08:23:12.708Z,99374.06
2023-01-29T08:25:39.303Z,99385.38
2023-01-29T08:28:05.859Z,99390.81
2023-01-29T08:30:34.575Z,99392.84
2023-01-29T08:33:02.788Z,99389.75
2023-01-29T08:35:29.238Z,99375.25
2023-01-29T08:37:59.109Z,99369.69
2023-01-29T08:40:26.306Z,99369.88
2023-01-29T08:42:52.791Z,99384.41
2023-01-29T08:45:19.316Z,99391.28
2023-01-29T08:47:49.945Z,99401.50
2023-01-29T08:50:17.574Z,99391.06
2023-01-29T08:52:45.796Z,99396.97
2023-01-29T08:55:13.031Z,99384.75
2023-01-29T08:57:39.770Z,99380.22
2023-01-29T09:00:08.110Z,99375.81
2023-01-29T09:02:34.783Z,99363.97
2023-01-29T09:05:01.262Z,99345.41
2023-01-29T09:07:29.128Z,99315.53
2023-01-29T09:09:55.613Z,99326.38
2023-01-29T09:12:22.153Z,99320.78
2023-01-29T09:14:48.603Z,99317.72
2023-01-29T09:17:15.416Z,99315.72
2023-01-29T09:19:41.869Z,99324.47
2023-01-29T09:22:10.332Z,99328.84
2023-01-29T09:24:37.445Z,99224.56
2023-01-29T09:27:05.079Z,99339.31
2023-01-29T09:29:35.767Z,99335.06
2023-01-29T09:32:04.594Z,99332.28
2023-01-29T09:34:30.987Z,99343.09
2023-01-29T09:36:57.515Z,99339.47
2023-01-29T09:39:24.117Z,99306.41
2023-01-29T09:41:56.731Z,99348.47
2023-01-29T09:44:28.722Z,99349.72
2023-01-29T09:46:56.678Z,99353.31
2023-01-29T09:49:35.593Z,99345.25
2023-01-29T09:52:07.141Z,99331.44
2023-01-29T09:54:51.281Z,99342.66
2023-01-29T09:57:25.719Z,99359.38
2023-01-29T09:59:52.219Z,99381.59
2023-01-29T10:02:26.260Z,99381.50
2023-01-29T10:05:07.858Z,99377.56
2023-01-29T10:07:50.969Z,99367.81
2023-01-29T10:10:20.224Z,99376.53
2023-01-29T10:13:07.514Z,99382.69
2023-01-29T10:16:08.203Z,99395.81
2023-01-29T10:18:55.308Z,99392.47
2023-01-29T10:21:51.039Z,99393.13
2023-01-29T10:24:35.363Z,99393.34
2023-01-29T10:27:03.710Z,99391.44
2023-01-29T10:29:32.595Z,99383.47
2023-01-29T10:32:04.981Z,99380.41
2023-01-29T10:34:42.811Z,99370.69
2023-01-29T10:37:18.641Z,99352.28
2023-01-29T10:39:46.027Z,99365.09
2023-01-29T10:42:31.341Z,99361.59
2023-01-29T10:45:13.077Z,99366.53
2023-01-29T10:47:59.710Z,99354.41
2023-01-29T10:50:50.399Z,99358.56
2023-01-29T10:53:42.208Z,99310.09
2023-01-29T10:56:22.714Z,99353.53
2023-01-29T10:58:57.351Z,99350.22
2023-01-29T11:01:23.979Z,99339.84
2023-01-29T11:04:02.306Z,99334.06
2023-01-29T11:06:32.391Z,99311.13
2023-01-29T11:12:11.906Z,99301.25
2023-01-29T11:14:51.562Z,99295.41
2023-01-29T11:17:21.013Z,99292.06
2023-01-29T11:19:51.202Z,99289.84
2023-01-29T11:22:20.254Z,99281.94
2023-01-29T11:25:07.007Z,99278.38
2023-01-29T11:27:35.552Z,99272.00
2023-01-29T11:30:02.746Z,99267.56
2023-01-29T11:32:33.947Z,99252.63
2023-01-29T11:35:03.708Z,99216.94
2023-01-29T11:37:42.191Z,99255.72
2023-01-29T11:40:23.798Z,99249.72
2023-01-29T11:42:52.280Z,99240.41
2023-01-29T11:45:27.534Z,99236.19
2023-01-29T11:47:55.900Z,99225.94
2023-01-29T11:50:28.057Z,99221.13
2023-01-29T11:52:55.378Z,99212.56
2023-01-29T11:55:40.960Z,99211.56
2023-01-29T11:58:21.339Z,99196.34
2023-01-29T12:00:51.277Z,99199.75
2023-01-29T12:03:41.438Z,99193.59
2023-01-29T12:06:24.064Z,99197.19
2023-01-29T12:08:59.555Z,99202.75
2023-01-29T12:11:31.395Z,99177.59
2023-01-29T12:14:04.184Z,99210.78
2023-01-29T12:16:53.170Z,99205.53
2023-01-29T12:19:34.621Z,99195.84
2023-01-29T12:22:10.499Z,99176.72
2023-01-29T12:24:57.789Z,99179.44
2023-01-29T12:27:29.740Z,99183.75
2023-01-29T12:30:07.331Z,99175.19
2023-01-29T12:32:52.304Z,99172.91
2023-01-29T12:35:24.051Z,99172.56
2023-01-29T12:38:00.904Z,99168.97
2023-01-29T12:40:33.086Z,99143.28
2023-01-29T12:43:11.197Z,99172.09
2023-01-29T12:45:38.092Z,99164.19
2023-01-29T12:48:11.999Z,99168.34
2023-01-29T12:50:39.620Z,99156.97
2023-01-29T12:53:38.816Z,99143.13
2023-01-29T12:56:22.619Z,99101.69
2023-01-29T12:58:53.279Z,99105.16
2023-01-29T13:01:36.717Z,99124.03
2023-01-29T13:04:11.479Z,99126.50
2023-01-29T13:06:46.371Z,99130.06
2023-01-29T13:09:21.073Z,99120.66
2023-01-29T13:12:20.409Z,99126.81
2023-01-29T13:14:59.066Z,99124.41
2023-01-29T13:17:34.653Z,99129.06
2023-01-29T13:20:10.380Z,99124.94
2023-01-29T13:22:39.815Z,99112.53
2023-01-29T13:25:12.229Z,99127.47
2023-01-29T13:27:39.161Z,99118.53
2023-01-29T13:30:06.528Z,99128.09
2023-01-29T13:32:35.569Z,99117.50
2023-01-29T13:35:12.564Z,99112.31
2023-01-29T13:37:46.370Z,99121.03
2023-01-29T13:40:24.206Z,99117.47
2023-01-29T13:42:54.098Z,99101.75
2023-01-29T13:45:28.002Z,99104.69
2023-01-29T13:48:09.250Z,99097.41
2023-01-29T13:50:37.547Z,99114.16
2023-01-29T13:53:08.277Z,99108.50
2023-01-29T13:55:40.197Z,99103.63
2023-01-29T13:58:15.141Z,99086.69
2023-01-29T14:00:41.525Z,99110.41
2023-01-29T14:03:13.645Z,99108.16
2023-01-29T14:05:42.485Z,99105.22
2023-01-29T14:08:08.849Z,99103.94
2023-01-29T14:10:37.732Z,99100.03
2023-01-29T14:13:04.104Z,99102.81
2023-01-29T14:15:36.292Z,99095.22
2023-01-29T14:18:25.369Z,99060.56
2023-01-29T14:20:56.665Z,99090.31
2023-01-29T14:23:41.341Z,99085.38
2023-01-29T14:26:26.682Z,99082.06
2023-01-29T14:29:03.709Z,99082.38
2023-01-29T14:31:41.233Z,99079.94
2023-01-29T14:34:16.804Z,99076.53
2023-01-29T14:36:45.878Z,99079.00
2023-01-29T14:39:29.532Z,99071.50
2023-01-29T14:41:57.067Z,99064.34
2023-01-29T14:44:45.591Z,99067.28
2023-01-29T14:47:38.199Z,99064.78
2023-01-29T14:50:40.924Z,99070.25
2023-01-29T14:53:43.025Z,99070.03
2023-01-29T14:56:15.577Z,99077.63
2023-01-29T14:58:49.103Z,99077.09
2023-01-29T15:01:19.182Z,99081.63
2023-01-29T15:03:50.785Z,99084.94
2023-01-29T15:06:25.035Z,99079.44
2023-01-29T15:09:15.251Z,99080.84
2023-01-29T15:12:02.574Z,99081.91
2023-01-29T15:14:33.883Z,99074.22
2023-01-29T15:17:09.131Z,99073.69
2023-01-29T15:19:40.173Z,99021.53
2023-01-29T15:22:13.240Z,99077.41
2023-01-29T15:24:42.070Z,99050.28
2023-01-29T15:27:20.089Z,99072.16
2023-01-29T15:30:05.961Z,99067.63
2023-01-29T15:32:35.781Z,99085.06
2023-01-29T15:35:08.826Z,99082.31
2023-01-29T15:37:36.320Z,99093.81
2023-01-29T15:40:03.437Z,99088.41
2023-01-29T15:42:43.789Z,99090.06
2023-01-29T15:45:31.187Z,99090.88
2023-01-29T15:48:03.581Z,99091.19
2023-01-29T15:50:32.706Z,99078.25
2023-01-29T15:53:03.721Z,99085.97
2023-01-29T15:55:31.621Z,99056.31
2023-01-29T15:57:59.767Z,99070.63
2023-01-29T16:00:29.620Z,99074.94
2023-01-29T16:02:58.052Z,98968.84
2023-01-29T16:05:30.535Z,99066.94
2023-01-29T16:07:57.707Z,99066.81
2023-01-29T16:10:30.203Z,99060.59
2023-01-29T16:12:57.414Z,99058.94
2023-01-29T16:15:32.085Z,99057.00
2023-01-29T16:18:00.322Z,99046.34
2023-01-29T16:20:32.848Z,99048.16
2023-01-29T16:23:00.168Z,99032.34
2023-01-29T16:25:29.529Z,99023.63
2023-01-29T16:27:57.270Z,99029.84
2023-01-29T16:30:27.788Z,99032.88
2023-01-29T16:33:01.791Z,99027.22
2023-01-29T16:35:28.468Z,99025.00
2023-01-29T16:38:02.571Z,99012.88
2023-01-29T16:40:33.076Z,99009.56
2023-01-29T16:43:19.681Z,99016.75
2023-01-29T16:46:37.854Z,99017.56
2023-01-29T16:49:25.946Z,99023.91
2023-01-29T16:51:54.200Z,99020.88
2023-01-29T16:54:24.667Z,99022.81
2023-01-29T16:56:59.829Z,99026.69
2023-01-29T16:59:31.468Z,99028.03
2023-01-29T17:01:59.067Z,99027.63
2023-01-29T17:04:25.700Z,98982.78
2023-01-29T17:07:01.913Z,99025.69
2023-01-29T17:09:37.557Z,99038.78
2023-01-29T17:12:07.959Z,98964.56
2023-01-29T17:14:36.559Z,99025.28
2023-01-29T17:17:18.765Z,99033.28
2023-01-29T17:19:45.300Z,99031.19
2023-01-29T17:22:15.079Z,99040.19
2023-01-29T17:24:42.579Z,99014.38
2023-01-29T17:27:23.050Z,99032.88
2023-01-29T17:29:49.703Z,99021.28
2023-01-29T17:32:19.904Z,99037.84
2023-01-29T17:34:46.860Z,99036.84
2023-01-29T17:37:15.316Z,99043.44
2023-01-29T17:39:43.303Z,99051.19
2023-01-29T17:42:15.110Z,99062.38
2023-01-29T17:44:43.011Z,99067.28
2023-01-29T17:47:15.041Z,99071.50
2023-01-29T17:49:42.434Z,99076.31
2023-01-29T17:52:09.534Z,99084.06
2023-01-29T17:54:36.053Z,99072.84
2023-01-29T17:57:02.904Z,99090.44
2023-01-29T17:59:31.555Z,99082.59
2023-01-29T18:01:58.621Z,99079.44
2023-01-29T18:04:25.662Z,99089.75
2023-01-29T18:06:53.244Z,99072.84
2023-01-29T18:09:21.098Z,99031.00
2023-01-29T18:11:49.202Z,99087.38
2023-01-29T18:14:16.249Z,99087.97
2023-01-29T18:16:44.063Z,99078.31
2023-01-29T18:19:19.708Z,99091.59
2023-01-29T18:21:46.675Z,99093.13
2023-01-29T18:24:13.129Z,99047.13
2023-01-29T18:26:39.584Z,99085.56
2023-01-29T18:29:06.094Z,99033.34
2023-01-29T18:31:32.597Z,99084.25
2023-01-29T18:33:59.171Z,99090.72
2023-01-29T18:36:25.593Z,99079.28
2023-01-29T18:38:52.073Z,99073.34
2023-01-29T18:41:18.564Z,99087.00
2023-01-29T18:43:45.101Z,99076.66
2023-01-29T18:46:11.630Z,99075.53
2023-01-29T18:48:38.101Z,99081.44
2023-01-29T18:51:05.341Z,99077.06
2023-01-29T18:53:33.373Z,98973.88
2023-01-29T18:56:05.608Z,99052.78
2023-01-29T18:58:36.113Z,99060.94
2023-01-29T19:01:08.957Z,99059.81
2023-01-29T19:03:36.229Z,99036.44
2023-01-29T19:06:04.860Z,99066.13
2023-01-29T19:08:32.195Z,99062.84
2023-01-29T19:11:02.296Z,99058.50
2023-01-29T19:13:30.051Z,99057.25
2023-01-29T19:15:56.665Z,99057.00
2023-01-29T19:18:25.931Z,99048.09
2023-01-29T19:20:53.100Z,99060.50
2023-01-29T19:23:20.040Z,99059.09
2023-01-29T19:25:46.927Z,99061.03
2023-01-29T19:28:13.559Z,99055.09
2023-01-29T19:30:40.078Z,99055.25
2023-01-29T19:33:06.676Z,99048.44
2023-01-29T19:35:33.631Z,99048.81
2023-01-29T19:38:01.085Z,99038.78
2023-01-29T19:40:27.603Z,99044.91
2023-01-29T19:42:55.795Z,99042.78
2023-01-29T19:45:49.654Z,99045.41
2023-01-29T19:48:13.378Z,99041.84
2023-01-29T19:50:39.805Z,99040.66
2023-01-29T19:53:06.353Z,99048.22
2023-01-29T19:55:32.984Z,99034.94
2023-01-29T19:57:59.442Z,99040.88
2023-01-29T20:00:25.901Z,99038.00
2023-01-29T20:02:52.385Z,99040.69
2023-01-29T20:05:20.334Z,99043.06
2023-01-29T20:07:47.084Z,99051.88
2023-01-29T20:10:16.924Z,99047.00
2023-01-29T20:12:45.104Z,99042.75
2023-01-29T20:15:15.131Z,99041.09
2023-01-29T20:17:41.999Z,99043.16
2023-01-29T20:20:09.316Z,99046.91
2023-01-29T20:22:35.871Z,99054.75
2023-01-29T20:25:02.505Z,99040.78
2023-01-29T20:27:28.921Z,99049.25
2023-01-29T20:29:55.383Z,99021.59
2023-01-29T20:32:21.832Z,99057.13
2023-01-29T20:34:52.065Z,99054.06
2023-01-29T20:37:19.814Z,99035.00
2023-01-29T20:39:46.895Z,99049.94
2023-01-29T20:42:13.449Z,99049.16
2023-01-29T20:44:39.917Z,99053.13
2023-01-29T20:47:06.427Z,99053.69
2023-01-29T20:49:32.928Z,99039.22
2023-01-29T20:51:59.409Z,99043.66
2023-01-29T20:54:25.888Z,99048.50
2023-01-29T20:56:52.412Z,99045.06
2023-01-29T20:59:19.581Z,99035.00
2023-01-29T21:01:46.099Z,99021.25
2023-01-29T21:04:12.551Z,99027.59
2023-01-29T21:06:38.974Z,99032.28
2023-01-29T21:09:05.576Z,99024.13
2023-01-29T21:11:33.463Z,99022.91
2023-01-29T21:14:01.707Z,99014.38
2023-01-29T21:16:28.222Z,99019.75
2023-01-29T21:18:56.508Z,99008.81
2023-01-29T21:21:23.243Z,99017.78
2023-01-29T21:23:50.099Z,99012.13
2023-01-29T21:26:16.598Z,99009.66
2023-01-29T21:28:43.047Z,98999.09
2023-01-29T21:31:11.510Z,98997.41
2023-01-29T21:33:38.388Z,98989.13
2023-01-29T21:36:05.249Z,98965.28
2023-01-29T21:38:31.782Z,98989.13
2023-01-29T21:41:02.788Z,98975.09
2023-01-29T21:43:29.242Z,98958.63
2023-01-29T21:46:02.391Z,98969.84
2023-01-29T21:48:28.819Z,98964.81
2023-01-29T21:50:55.294Z,98936.84
2023-01-29T21:53:22.183Z,98958.13
2023-01-29T21:55:48.673Z,98949.41
2023-01-29T21:58:15.129Z,98945.81
2023-01-29T22:00:41.549Z,98936.28
2023-01-29T22:03:08.111Z,98929.00
2023-01-29T22:05:34.745Z,98876.56
2023-01-29T22:08:01.265Z,98946.91
2023-01-29T22:10:28.518Z,98933.91
2023-01-29T22:12:55.297Z,98820.81
2023-01-29T22:15:23.752Z,98938.91
2023-01-29T22:17:50.602Z,98939.59
2023-01-29T22:20:17.468Z,98931.47
2023-01-29T22:22:44.105Z,98919.72
2023-01-29T22:25:10.709Z,98916.56
2023-01-29T22:27:37.482Z,98917.53
2023-01-29T22:30:05.638Z,98909.97
2023-01-29T22:32:32.955Z,98907.63
2023-01-29T22:34:59.545Z,98907.19
2023-01-29T22:37:25.960Z,98908.03
2023-01-29T22:39:52.442Z,98901.56
2023-01-29T22:42:20.345Z,98869.69
2023-01-29T22:44:48.038Z,98889.00
2023-01-29T22:47:14.542Z,98874.66
2023-01-29T22:49:41.524Z,98890.13
2023-01-29T22:52:10.653Z,98889.81
2023-01-29T22:54:43.443Z,98885.97
2023-01-29T22:57:12.485Z,98886.66
2023-01-29T22:59:39.443Z,98870.53
2023-01-29T23:02:07.353Z,98850.00
2023-01-29T23:04:33.823Z,98853.16
2023-01-29T23:07:00.247Z,98857.28
2023-01-29T23:09:27.073Z,98874.41
2023-01-29T23:11:53.574Z,98881.00
2023-01-29T23:14:20.231Z,98843.66
2023-01-29T23:16:46.720Z,98873.03
2023-01-29T23:19:13.195Z,98864.19
2023-01-29T23:21:39.797Z,98857.84
2023-01-29T23:24:07.824Z,98820.09
2023-01-29T23:26:52.885Z,98842.53
2023-01-29T23:29:19.383Z,98867.91
2023-01-29T23:31:45.906Z,98844.88
2023-01-29T23:34:13.614Z,98853.00
2023-01-29T23:36:40.105Z,98823.63
2023-01-29T23:39:06.659Z,98833.16
2023-01-29T23:41:33.318Z,98796.34
2023-01-29T23:43:59.762Z,98824.16
2023-01-29T23:46:26.273Z,98831.78
2023-01-29T23:48:52.887Z,98827.22
2023-01-29T23:51:19.346Z,98849.56
2023-01-29T23:53:45.838Z,98859.59
2023-01-29T23:56:12.337Z,98863.34
2023-01-29T23:58:39.095Z,98833.16
